Hovedside
METAR-TAF:

METAR-TAF

Lufthavner :

Trondheim lufthavn. Værnes

Trondheim, Norge

breddegrad: 63-28N, lengdegrad: 010-56E, høyde over havet: 1 m

Gjeldene værobservasjon

Denne rapporten ble laget for 25 minutter siden, klokken 06:50 UTC
Vind 3 kt fra skiftende retning
Temperatur 10°C
Luftfuktighet 62%
Trykk 1020 hPa
Sikt 10 km eller mer
ingen skyer under 1500 m og ingen bygeskyer

METAR: ENVA 230650Z VRB03KT CAVOK 10/03 Q1020 NOSIG RMK WIND 670FT 09008KT

Tid: 09:15 (07:15 UTC)

Varsel

Varsel gyldig fra 23. klokken 06 UTC til 24. klokken 06 UTC
Vind 8 kt fra Øst-sørøst
Sikt 10 km eller mer
ingen skyer under 1500 m og ingen bygeskyer
Sannsynlighet 30% :
Midlertidig
fra 23. klokken 12 UTC til 24. klokken 06 UTC
Vind 15 kt fra Sør med vindkast opp mot 25 kt

TAF: ENVA 2306/2406 12008KT CAVOK PROB30 TEMPO 2312/2406 17015G25KT

Værobservasjoner og værvarsel for over 4000 flyplasser (METAR- og TAF-rapporter).

Tilgjengelige stasjoner er representert av de røde og gule prikkene på kartet.

Hold musepekeren over prikken for å se navnet på stasjonen.

Klikk så for å se værobservasjoner og -varsler.

For å forandre kartet kan du klikke på den grønne knappen med svart kryss for å zoome inn, på den grønne knappen med strek for å zoome ut, eller på de grønne pilene for å se tilstøtende kart.


METAR-TAF: